Time;durP1;ratioP1;P1;durP2;ratioP2;P2;SDS_P1;SDS_P2;PMS_P1;PMS_P2;Temp;Humidity;BMP_temperature;BMP_pressure;BME280_temperature;BME280_humidity;BME280_pressure;Samples;Min_cycle;Max_cycle;Signal;HPM_P1;HPM_P2
2021/08/11 00:01:14;;;;;;;18.17;14.15;;;;;;;13.44;100.00;101338.72;4984884;28;20515;-83
2021/08/11 00:03:40;;;;;;;17.25;13.18;;;;;;;13.46;100.00;101342.06;4988716;28;20073;-82
2021/08/11 00:06:06;;;;;;;16.40;13.23;;;;;;;13.38;100.00;101350.16;4984808;28;20137;-82
2021/08/11 00:08:31;;;;;;;18.42;12.80;;;;;;;13.39;100.00;101347.31;4988016;28;20108;-83
2021/08/11 00:10:57;;;;;;;15.63;12.98;;;;;;;13.34;100.00;101346.97;4989749;28;20050;-85
2021/08/11 00:13:22;;;;;;;16.35;12.63;;;;;;;13.27;100.00;101343.28;4987908;28;20050;-82
2021/08/11 00:15:48;;;;;;;17.88;13.68;;;;;;;13.26;100.00;101346.97;4988279;28;20054;-83
2021/08/11 00:18:14;;;;;;;16.13;12.40;;;;;;;13.24;100.00;101349.81;4986290;28;20206;-81
2021/08/11 00:20:40;;;;;;;17.88;13.48;;;;;;;13.21;100.00;101352.84;4987889;28;20789;-83
2021/08/11 00:23:05;;;;;;;15.90;12.18;;;;;;;13.15;100.00;101345.44;4988047;28;20085;-84
2021/08/11 00:25:31;;;;;;;17.45;13.20;;;;;;;13.13;100.00;101346.63;4987407;28;20053;-85
2021/08/11 00:27:56;;;;;;;16.50;12.82;;;;;;;13.14;100.00;101341.03;4987447;28;20050;-84
2021/08/11 00:30:22;;;;;;;19.42;13.70;;;;;;;13.10;100.00;101347.78;4982677;28;20049;-85
2021/08/11 00:32:47;;;;;;;17.63;13.00;;;;;;;13.03;100.00;101344.06;4974952;28;20129;-82
2021/08/11 00:35:13;;;;;;;19.63;13.25;;;;;;;12.98;100.00;101357.22;4976475;28;20053;-83
2021/08/11 00:37:40;;;;;;;19.25;13.88;;;;;;;12.94;100.00;101353.16;4976626;28;22083;-82
2021/08/11 00:40:07;;;;;;;16.77;12.85;;;;;;;12.97;100.00;101356.34;4981736;28;20042;-82
2021/08/11 00:42:34;;;;;;;17.65;13.40;;;;;;;12.91;100.00;101348.09;4980555;28;20439;-82
2021/08/11 00:45:02;;;;;;;18.80;13.55;;;;;;;12.83;100.00;101347.09;4977760;28;20177;-85
2021/08/11 00:47:31;;;;;;;20.55;13.90;;;;;;;12.81;100.00;101340.16;4980350;28;20112;-83
2021/08/11 00:49:57;;;;;;;16.48;13.18;;;;;;;12.77;100.00;101349.56;4975240;28;20065;-83
2021/08/11 00:52:22;;;;;;;17.85;12.73;;;;;;;12.78;100.00;101348.59;4979781;28;20054;-82
2021/08/11 00:54:49;;;;;;;17.52;13.55;;;;;;;12.80;100.00;101355.50;4980191;28;20496;-87
2021/08/11 00:57:16;;;;;;;17.33;14.05;;;;;;;12.79;100.00;101356.47;4982800;28;20050;-85
2021/08/11 00:59:43;;;;;;;18.10;13.75;;;;;;;12.75;100.00;101357.84;4981191;28;20096;-84
2021/08/11 01:02:09;;;;;;;19.42;14.70;;;;;;;12.72;100.00;101366.25;4981207;28;20060;-82
2021/08/11 01:04:38;;;;;;;18.67;13.57;;;;;;;12.68;100.00;101359.47;4979447;28;20046;-84
2021/08/11 01:07:05;;;;;;;19.90;13.35;;;;;;;12.63;100.00;101357.31;4981202;28;20101;-82
2021/08/11 01:09:31;;;;;;;18.90;13.57;;;;;;;12.60;100.00;101359.44;4981097;28;20162;-83
2021/08/11 01:11:58;;;;;;;18.05;13.70;;;;;;;12.60;100.00;101357.63;4976905;28;20122;-81
2021/08/11 01:14:24;;;;;;;19.38;13.35;;;;;;;12.60;100.00;101351.38;4979380;28;20042;-82
2021/08/11 01:16:49;;;;;;;18.38;13.05;;;;;;;12.59;100.00;101357.78;4976798;28;20455;-82
2021/08/11 01:19:17;;;;;;;19.90;14.18;;;;;;;12.59;100.00;101355.09;4982608;28;20411;-85
2021/08/11 01:21:56;;;;;;;18.75;14.70;;;;;;;12.59;100.00;101350.53;4980191;28;20519;-80
2021/08/11 01:24:56;;;;;;;18.60;14.15;;;;;;;12.56;100.00;101350.03;4977713;28;20061;-83
2021/08/11 01:27:42;;;;;;;18.83;14.63;;;;;;;12.46;100.00;101354.69;4978122;28;20226;-82
2021/08/11 01:30:40;;;;;;;20.63;13.52;;;;;;;12.36;100.00;101355.69;4980070;28;20129;-81
2021/08/11 01:33:21;;;;;;;19.38;13.85;;;;;;;12.33;100.00;101356.00;4984836;28;20062;-82
2021/08/11 01:35:57;;;;;;;17.17;13.18;;;;;;;12.37;100.00;101357.38;4996675;28;20058;-81
2021/08/11 01:38:26;;;;;;;18.23;13.57;;;;;;;12.38;100.00;101352.84;4970271;28;20042;-85
2021/08/11 01:40:55;;;;;;;17.55;13.20;;;;;;;12.38;100.00;101359.06;4966940;28;20404;-82
2021/08/11 01:43:24;;;;;;;18.55;13.50;;;;;;;12.35;100.00;101362.06;4966540;28;20090;-82
2021/08/11 01:45:52;;;;;;;22.20;14.02;;;;;;;12.28;100.00;101361.03;4967283;28;20035;-81
2021/08/11 01:48:27;;;;;;;18.05;13.45;;;;;;;12.26;100.00;101362.22;4982913;28;20141;-81
2021/08/11 01:50:53;;;;;;;19.85;13.73;;;;;;;12.21;100.00;101354.59;4966019;28;20039;-81
2021/08/11 01:53:21;;;;;;;21.65;13.77;;;;;;;12.22;100.00;101350.06;4965167;28;20510;-83
2021/08/11 01:55:49;;;;;;;19.60;13.50;;;;;;;12.24;100.00;101346.22;4967013;28;20047;-81
2021/08/11 01:58:15;;;;;;;17.45;13.60;;;;;;;12.23;100.00;101360.69;4981862;28;20137;-82
2021/08/11 02:00:41;;;;;;;20.02;14.05;;;;;;;12.22;100.00;101352.75;4956883;28;20224;-84
2021/08/11 02:03:07;;;;;;;20.67;13.00;;;;;;;12.18;100.00;101352.25;4965545;28;20130;-81
2021/08/11 02:05:33;;;;;;;18.48;14.23;;;;;;;12.21;100.00;101354.59;4966434;28;20109;-84
2021/08/11 02:08:02;;;;;;;17.83;13.57;;;;;;;12.19;100.00;101359.31;4968381;28;20046;-80
2021/08/11 02:10:28;;;;;;;;;;;;;;;12.25;100.00;101361.34;4966681;28;20051;-82
2021/08/11 02:12:54;;;;;;;20.52;14.00;;;;;;;12.15;100.00;101363.34;4965845;28;19929;-80
2021/08/11 02:15:19;;;;;;;22.00;14.98;;;;;;;12.07;100.00;101366.81;4966783;28;20065;-84
2021/08/11 02:17:46;;;;;;;20.67;14.50;;;;;;;12.12;100.00;101360.97;4966574;28;20495;-83
2021/08/11 02:20:14;;;;;;;19.20;14.80;;;;;;;12.13;100.00;101363.47;4967719;28;20050;-81
2021/08/11 02:22:40;;;;;;;20.37;14.73;;;;;;;12.16;100.00;101355.09;4947379;28;20043;-86
2021/08/11 02:25:08;;;;;;;23.92;16.65;;;;;;;12.15;100.00;101350.72;4964897;28;20050;-83
2021/08/11 02:27:41;;;;;;;26.60;17.27;;;;;;;12.18;100.00;101355.78;4966238;28;20238;-84
2021/08/11 02:30:13;;;;;;;26.95;17.52;;;;;;;12.12;100.00;101355.59;4964217;28;20034;-84
2021/08/11 02:32:47;;;;;;;27.05;17.50;;;;;;;12.13;100.00;101350.03;4985175;28;20046;-82
2021/08/11 02:35:18;;;;;;;27.48;18.40;;;;;;;12.15;100.00;101347.19;4985262;28;20066;-83
2021/08/11 02:37:55;;;;;;;27.00;17.23;;;;;;;12.17;100.00;101346.03;4981819;28;20057;-81
2021/08/11 02:40:54;;;;;;;26.42;16.88;;;;;;;12.18;100.00;101347.69;4984175;28;20057;-85
2021/08/11 02:43:28;;;;;;;27.25;17.73;;;;;;;12.25;100.00;101347.88;4986586;28;20073;-86
2021/08/11 02:46:02;;;;;;;28.35;18.02;;;;;;;12.30;100.00;101350.94;4986561;28;20177;-83
2021/08/11 02:48:29;;;;;;;24.05;17.52;;;;;;;12.30;100.00;101353.63;4984661;28;20038;-83
2021/08/11 02:50:55;;;;;;;25.50;17.55;;;;;;;12.29;100.00;101349.28;4990291;28;20050;-80
2021/08/11 02:53:24;;;;;;;25.67;17.88;;;;;;;12.30;100.00;101345.56;4989170;28;20093;-84
2021/08/11 02:55:50;;;;;;;22.80;15.98;;;;;;;12.29;100.00;101348.44;4990497;28;20086;-81
2021/08/11 02:58:20;;;;;;;24.30;17.00;;;;;;;12.28;100.00;101344.03;4987354;28;20039;-80
2021/08/11 03:00:47;;;;;;;26.92;15.85;;;;;;;12.23;100.00;101349.91;4986085;28;20129;-83
2021/08/11 03:03:14;;;;;;;23.58;16.23;;;;;;;12.19;100.00;101344.00;4986829;28;20512;-82
2021/08/11 03:05:40;;;;;;;25.42;16.63;;;;;;;12.15;100.00;101344.50;4986650;28;20046;-83
2021/08/11 03:08:07;;;;;;;32.20;17.83;;;;;;;12.13;100.00;101354.56;4999700;28;20487;-80
2021/08/11 03:10:33;;;;;;;34.92;17.98;;;;;;;12.11;100.00;101349.38;4983261;28;20411;-84
2021/08/11 03:12:59;;;;;;;26.05;17.10;;;;;;;12.13;100.00;101357.25;4982729;28;20038;-80
2021/08/11 03:15:27;;;;;;;31.38;18.90;;;;;;;12.16;100.00;101359.63;4984716;28;20777;-82
2021/08/11 03:17:53;;;;;;;29.85;18.35;;;;;;;12.14;100.00;101356.25;4985807;28;20069;-82
2021/08/11 03:20:18;;;;;;;31.73;18.45;;;;;;;12.13;100.00;101354.56;4990167;28;20492;-83
2021/08/11 03:22:44;;;;;;;50.00;20.30;;;;;;;12.07;100.00;101353.34;4967951;28;20061;-83
2021/08/11 03:25:10;;;;;;;40.33;18.90;;;;;;;12.03;100.00;101356.56;4985774;28;20554;-81
2021/08/11 03:27:35;;;;;;;36.67;20.17;;;;;;;12.05;100.00;101349.16;4985773;28;20058;-83
2021/08/11 03:30:00;;;;;;;50.20;21.77;;;;;;;12.01;100.00;101353.16;4984828;28;20039;-85
2021/08/11 03:32:26;;;;;;;77.43;22.60;;;;;;;11.98;100.00;101357.00;4982842;28;20090;-83
2021/08/11 03:34:51;;;;;;;59.50;21.85;;;;;;;11.98;100.00;101356.19;4984822;28;20038;-81
2021/08/11 03:37:17;;;;;;;49.63;19.83;;;;;;;11.94;100.00;101359.19;4999432;28;20066;-81
2021/08/11 03:39:43;;;;;;;45.20;20.40;;;;;;;11.95;100.00;101357.34;4985133;28;20466;-83
2021/08/11 03:42:09;;;;;;;39.90;20.42;;;;;;;11.96;100.00;101356.31;5000879;28;20046;-83
2021/08/11 03:44:34;;;;;;;37.05;19.45;;;;;;;11.96;100.00;101359.84;4985588;28;20041;-82
2021/08/11 03:47:00;;;;;;;36.25;19.35;;;;;;;11.96;100.00;101351.78;4968733;28;20034;-80
2021/08/11 03:49:25;;;;;;;32.50;20.35;;;;;;;11.94;100.00;101355.66;4979396;28;20030;-82
2021/08/11 03:51:51;;;;;;;36.95;19.20;;;;;;;11.96;100.00;101356.31;4960702;28;20046;-82
2021/08/11 03:54:16;;;;;;;28.83;19.25;;;;;;;11.89;100.00;101357.97;4978137;28;20050;-81
2021/08/11 03:56:41;;;;;;;32.88;18.35;;;;;;;11.86;100.00;101352.91;4960270;28;20553;-82
2021/08/11 03:59:07;;;;;;;27.02;17.55;;;;;;;11.88;100.00;101356.28;4978070;28;20046;-79
2021/08/11 04:01:32;;;;;;;24.23;17.10;;;;;;;11.85;100.00;101352.06;4978417;28;20499;-82
2021/08/11 04:03:58;;;;;;;25.10;16.65;;;;;;;11.86;100.00;101361.81;5009704;28;20117;-79
2021/08/11 04:06:24;;;;;;;21.77;15.52;;;;;;;11.83;100.00;101359.44;4973706;28;20030;-79
2021/08/11 04:08:49;;;;;;;24.02;15.98;;;;;;;11.81;100.00;101356.03;4986437;28;20047;-83
2021/08/11 04:11:15;;;;;;;23.45;15.93;;;;;;;11.77;100.00;101354.69;4976950;28;20749;-80
2021/08/11 04:13:40;;;;;;;23.35;15.75;;;;;;;11.76;100.00;101361.03;4960215;28;20125;-81
2021/08/11 04:16:05;;;;;;;21.42;15.82;;;;;;;11.75;100.00;101365.59;4981365;28;20077;-83
2021/08/11 04:18:32;;;;;;;20.15;14.98;;;;;;;11.80;100.00;101356.22;4957167;28;20031;-79
2021/08/11 04:20:57;;;;;;;22.33;15.68;;;;;;;11.83;100.00;101366.66;4998104;28;20050;-84
2021/08/11 04:23:23;;;;;;;22.77;15.63;;;;;;;11.82;100.00;101360.41;4974439;28;20038;-79
2021/08/11 04:25:48;;;;;;;23.63;17.20;;;;;;;11.85;100.00;101360.13;4994930;28;20499;-82
2021/08/11 04:28:14;;;;;;;24.48;16.75;;;;;;;11.86;100.00;101366.38;4983461;28;20484;-80
2021/08/11 04:30:40;;;;;;;25.15;15.55;;;;;;;11.81;100.00;101369.50;4976480;28;20043;-83
2021/08/11 04:33:06;;;;;;;23.83;15.98;;;;;;;11.80;100.00;101370.50;4964237;28;20128;-79
2021/08/11 04:35:31;;;;;;;26.40;16.83;;;;;;;11.80;100.00;101361.59;4983072;28;20105;-80
2021/08/11 04:37:57;;;;;;;29.75;17.95;;;;;;;11.84;100.00;101371.03;4987603;28;20046;-81
2021/08/11 04:40:22;;;;;;;36.95;19.92;;;;;;;11.90;100.00;101373.94;4988668;28;20049;-81
2021/08/11 04:42:48;;;;;;;40.42;20.58;;;;;;;12.03;100.00;101372.69;4981441;28;20069;-82
2021/08/11 04:45:13;;;;;;;34.35;19.92;;;;;;;12.10;100.00;101371.03;4986096;28;20124;-82
2021/08/11 04:47:39;;;;;;;67.05;23.70;;;;;;;12.13;100.00;101362.63;4987740;28;20042;-83
2021/08/11 04:50:05;;;;;;;42.00;20.70;;;;;;;12.18;100.00;101365.69;4985287;28;20038;-82
2021/08/11 04:52:30;;;;;;;49.75;21.15;;;;;;;12.14;100.00;101372.38;5000564;28;20689;-81
2021/08/11 04:54:56;;;;;;;40.42;21.25;;;;;;;12.17;100.00;101372.94;4985536;28;20125;-80
2021/08/11 04:57:21;;;;;;;46.50;22.08;;;;;;;12.19;100.00;101373.59;4986160;28;20406;-83
2021/08/11 04:59:46;;;;;;;48.55;22.00;;;;;;;12.24;100.00;101375.81;4986945;28;20129;-81
2021/08/11 05:02:12;;;;;;;40.42;21.45;;;;;;;12.24;100.00;101380.34;4986829;28;20129;-83
2021/08/11 05:04:39;;;;;;;39.40;21.90;;;;;;;12.26;100.00;101378.34;5010099;28;20035;-81
2021/08/11 05:07:07;;;;;;;38.67;21.02;;;;;;;12.31;100.00;101376.00;4987997;28;20141;-82
2021/08/11 05:09:33;;;;;;;40.95;22.45;;;;;;;12.35;100.00;101382.75;5002613;28;23022;-83
2021/08/11 05:11:58;;;;;;;47.25;24.23;;;;;;;12.37;100.00;101386.13;4980121;28;20046;-83
2021/08/11 05:14:24;;;;;;;39.83;22.08;;;;;;;12.40;100.00;101389.34;4987098;28;20108;-84
2021/08/11 05:16:49;;;;;;;50.38;23.33;;;;;;;12.40;100.00;101385.81;4988187;28;20042;-82
2021/08/11 05:19:14;;;;;;;42.50;23.80;;;;;;;12.37;100.00;101391.50;4998756;28;20058;-81
2021/08/11 05:21:40;;;;;;;37.05;22.17;;;;;;;12.41;100.00;101395.56;4980306;28;20118;-80
2021/08/11 05:24:05;;;;;;;39.63;22.20;;;;;;;12.41;100.00;101390.19;4978283;28;20616;-81
2021/08/11 05:26:31;;;;;;;39.20;22.17;;;;;;;12.44;100.00;101399.78;4962463;28;20046;-80
2021/08/11 05:28:57;;;;;;;35.33;22.23;;;;;;;12.48;100.00;101393.06;4975221;28;20066;-80
2021/08/11 05:31:24;;;;;;;35.50;22.58;;;;;;;12.58;100.00;101397.31;4980108;28;20042;-82
2021/08/11 05:33:51;;;;;;;45.40;24.65;;;;;;;12.60;100.00;101399.84;4981646;28;20042;-83
2021/08/11 05:36:16;;;;;;;42.15;24.20;;;;;;;12.59;100.00;101404.38;4973407;28;20055;-81
2021/08/11 05:38:42;;;;;;;42.80;23.45;;;;;;;12.65;100.00;101403.72;4980967;28;20561;-83
2021/08/11 05:41:07;;;;;;;40.97;22.40;;;;;;;12.69;100.00;101406.09;4979649;28;20042;-82
2021/08/11 05:43:34;;;;;;;43.00;25.38;;;;;;;12.72;100.00;101417.41;4979741;28;20093;-80
2021/08/11 05:46:00;;;;;;;39.33;24.73;;;;;;;12.78;100.00;101415.91;4997833;28;20057;-80
2021/08/11 05:48:26;;;;;;;44.17;24.20;;;;;;;12.77;100.00;101417.72;4983058;28;20046;-82
2021/08/11 05:50:51;;;;;;;50.63;25.90;;;;;;;12.83;100.00;101425.19;4984344;28;20046;-81
2021/08/11 05:53:17;;;;;;;46.28;25.63;;;;;;;12.92;100.00;101430.56;4987013;28;20495;-80
2021/08/11 05:55:42;;;;;;;44.92;26.20;;;;;;;12.99;100.00;101437.00;4982815;28;20558;-81
2021/08/11 05:58:11;;;;;;;45.58;27.17;;;;;;;13.02;100.00;101429.44;4985696;28;20042;-79
2021/08/11 06:00:36;;;;;;;;;;;;;;;13.10;100.00;101437.53;4982125;28;20438;-79
2021/08/11 06:03:03;;;;;;;47.47;27.88;;;;;;;13.11;100.00;101441.06;4984048;28;19917;-81
2021/08/11 06:05:28;;;;;;;47.95;27.55;;;;;;;13.16;100.00;101444.13;4983616;28;20545;-83
2021/08/11 06:07:54;;;;;;;50.13;27.30;;;;;;;13.20;100.00;101437.38;4966883;28;20068;-82
2021/08/11 06:10:19;;;;;;;49.92;25.15;;;;;;;13.23;100.00;101447.00;4985028;28;20093;-82
2021/08/11 06:12:47;;;;;;;51.08;27.05;;;;;;;13.27;100.00;101441.16;4992440;28;20038;-82
2021/08/11 06:15:12;;;;;;;57.35;26.55;;;;;;;13.36;100.00;101443.84;4985421;28;20121;-79
2021/08/11 06:17:49;;;;;;;55.28;26.42;;;;;;;13.39;100.00;101440.81;4982493;28;20133;-80
2021/08/11 06:20:17;;;;;;;52.65;27.02;;;;;;;13.37;100.00;101446.38;4994685;28;20041;-82
2021/08/11 06:22:43;;;;;;;48.17;27.30;;;;;;;13.42;100.00;101449.41;4999421;28;21896;-84
2021/08/11 06:25:10;;;;;;;61.50;29.55;;;;;;;13.46;100.00;101453.44;4982626;28;20055;-84
2021/08/11 06:27:36;;;;;;;50.58;27.55;;;;;;;13.58;100.00;101454.00;4980671;28;20117;-79
2021/08/11 06:30:02;;;;;;;50.10;27.48;;;;;;;13.60;100.00;101459.19;4982530;28;20244;-84
2021/08/11 06:32:28;;;;;;;62.88;27.10;;;;;;;13.60;100.00;101451.13;4984316;28;20042;-82
2021/08/11 06:34:53;;;;;;;59.55;27.65;;;;;;;13.56;100.00;101455.16;4982899;28;20046;-83
2021/08/11 06:37:19;;;;;;;59.83;28.77;;;;;;;13.62;100.00;101449.94;4983941;28;20069;-82
2021/08/11 06:39:44;;;;;;;53.22;29.60;;;;;;;13.77;100.00;101450.09;4984064;28;20034;-84
2021/08/11 06:42:10;;;;;;;55.30;29.23;;;;;;;13.86;100.00;101450.94;4987484;28;20093;-82
2021/08/11 06:44:35;;;;;;;50.42;27.58;;;;;;;13.84;100.00;101452.94;4995456;28;20049;-84
2021/08/11 06:47:01;;;;;;;49.95;26.65;;;;;;;13.81;100.00;101456.00;5000191;28;20050;-83
2021/08/11 06:49:26;;;;;;;46.28;27.55;;;;;;;13.91;100.00;101462.06;4969500;28;20130;-84
2021/08/11 06:51:52;;;;;;;49.25;27.65;;;;;;;13.90;100.00;101452.31;4974504;28;20043;-82
2021/08/11 06:54:18;;;;;;;49.10;27.98;;;;;;;13.90;100.00;101460.41;4979039;28;20453;-85
2021/08/11 06:56:43;;;;;;;49.60;29.85;;;;;;;14.02;100.00;101460.88;4998740;28;20479;-84
2021/08/11 06:59:08;;;;;;;47.63;28.83;;;;;;;14.05;100.00;101471.34;4976927;28;20093;-81
2021/08/11 07:01:34;;;;;;;50.90;30.92;;;;;;;14.19;100.00;101463.38;4996430;28;20038;-81
2021/08/11 07:04:00;;;;;;;46.63;27.60;;;;;;;14.35;100.00;101462.47;4977140;28;20039;-80
2021/08/11 07:06:25;;;;;;;49.00;28.77;;;;;;;14.50;100.00;101461.78;4977858;28;20062;-85
2021/08/11 07:08:50;;;;;;;42.55;26.73;;;;;;;14.57;100.00;101474.44;4981298;28;20060;-85
2021/08/11 07:11:16;;;;;;;39.53;25.55;;;;;;;14.52;100.00;101468.72;4983031;28;20097;-83
2021/08/11 07:13:41;;;;;;;40.95;25.65;;;;;;;14.58;100.00;101469.88;4981413;28;20047;-82
2021/08/11 07:16:07;;;;;;;35.78;24.67;;;;;;;14.53;100.00;101470.41;4975800;28;20038;-80
2021/08/11 07:18:32;;;;;;;39.15;26.77;;;;;;;14.55;100.00;101473.78;4980974;28;20046;-80
2021/08/11 07:20:58;;;;;;;39.88;25.67;;;;;;;14.70;100.00;101486.56;4961715;28;20049;-80
2021/08/11 07:23:24;;;;;;;43.78;28.42;;;;;;;14.73;100.00;101478.09;5013705;28;20133;-83
2021/08/11 07:25:49;;;;;;;42.00;28.50;;;;;;;14.82;100.00;101477.06;4976142;28;20034;-82
2021/08/11 07:28:15;;;;;;;43.00;27.58;;;;;;;14.92;100.00;101485.78;4974131;28;20042;-83
2021/08/11 07:30:41;;;;;;;45.63;27.98;;;;;;;15.00;100.00;101477.66;4981262;28;20495;-81
2021/08/11 07:33:08;;;;;;;43.95;27.63;;;;;;;15.08;100.00;101480.31;4983200;28;20052;-83
2021/08/11 07:35:35;;;;;;;45.92;30.02;;;;;;;15.21;100.00;101481.59;4982611;28;20328;-83
2021/08/11 07:38:01;;;;;;;46.65;30.20;;;;;;;15.21;100.00;101481.59;4984170;28;20059;-81
2021/08/11 07:40:27;;;;;;;52.05;31.02;;;;;;;15.23;100.00;101484.97;4975697;28;20042;-82
2021/08/11 07:42:54;;;;;;;55.78;30.42;;;;;;;15.25;100.00;101486.47;4982213;28;20713;-82
2021/08/11 07:45:20;;;;;;;52.33;30.73;;;;;;;15.20;100.00;101494.28;4977238;28;20069;-81
2021/08/11 07:47:47;;;;;;;56.15;30.98;;;;;;;15.24;100.00;101489.34;4983935;28;20068;-82
2021/08/11 07:50:15;;;;;;;57.72;34.60;;;;;;;15.29;100.00;101493.19;4979840;28;20197;-80
2021/08/11 07:52:40;;;;;;;62.58;36.33;;;;;;;15.41;100.00;101495.50;4984990;28;20034;-83
2021/08/11 07:55:07;;;;;;;59.97;35.78;;;;;;;15.45;100.00;101492.25;4991945;28;20042;-82
2021/08/11 07:57:32;;;;;;;62.78;35.85;;;;;;;15.53;100.00;101486.78;4987667;28;20241;-83
2021/08/11 07:59:59;;;;;;;60.03;34.15;;;;;;;15.54;100.00;101490.34;4987248;28;20054;-84
2021/08/11 08:02:24;;;;;;;55.67;34.08;;;;;;;15.47;100.00;101484.78;4998208;28;20133;-81
2021/08/11 08:04:49;;;;;;;58.63;33.65;;;;;;;15.61;100.00;101490.47;4981653;28;20045;-84
2021/08/11 08:07:15;;;;;;;60.38;34.40;;;;;;;15.72;100.00;101492.78;4993473;28;20570;-83
2021/08/11 08:09:40;;;;;;;60.15;36.65;;;;;;;15.71;100.00;101499.22;4967246;28;20557;-80
2021/08/11 08:12:06;;;;;;;61.85;33.95;;;;;;;15.69;100.00;101504.81;4986407;28;20110;-82
2021/08/11 08:14:32;;;;;;;61.67;33.75;;;;;;;15.73;100.00;101499.84;4984636;28;20034;-82
2021/08/11 08:16:57;;;;;;;65.80;34.13;;;;;;;15.74;100.00;101506.97;4988353;28;20105;-84
2021/08/11 08:19:22;;;;;;;56.63;32.22;;;;;;;15.81;100.00;101505.22;5003326;28;20042;-84
2021/08/11 08:21:48;;;;;;;61.53;34.25;;;;;;;15.89;100.00;101507.03;4986105;28;20133;-86
2021/08/11 08:24:13;;;;;;;55.97;32.10;;;;;;;15.96;100.00;101494.44;4988924;28;20066;-81
2021/08/11 08:26:42;;;;;;;51.88;33.50;;;;;;;16.09;100.00;101497.38;4982954;28;20073;-84
2021/08/11 08:29:08;;;;;;;52.75;33.60;;;;;;;16.30;100.00;101496.66;4986017;28;20115;-84
2021/08/11 08:31:34;;;;;;;44.72;28.42;;;;;;;16.26;100.00;101495.34;4979322;28;20468;-80
2021/08/11 08:34:00;;;;;;;45.35;28.92;;;;;;;16.30;100.00;101493.94;4983069;28;20047;-83
2021/08/11 08:36:25;;;;;;;42.88;25.88;;;;;;;16.38;100.00;101499.28;4983071;28;20133;-81
2021/08/11 08:38:50;;;;;;;39.97;26.77;;;;;;;16.28;100.00;101504.09;4984013;28;20066;-81
2021/08/11 08:41:17;;;;;;;35.67;24.67;;;;;;;16.36;100.00;101506.72;4982091;28;20081;-82
2021/08/11 08:43:42;;;;;;;34.20;26.40;;;;;;;16.59;100.00;101505.81;4984730;28;20551;-84
2021/08/11 08:46:09;;;;;;;34.90;25.40;;;;;;;16.73;100.00;101502.28;4998501;28;20121;-79
2021/08/11 08:48:39;;;;;;;32.35;24.20;;;;;;;16.92;100.00;101509.03;4969136;28;20049;-83
2021/08/11 08:51:05;;;;;;;31.67;23.98;;;;;;;17.18;100.00;101508.53;4985303;28;20034;-83
2021/08/11 08:53:31;;;;;;;29.55;21.88;;;;;;;17.26;99.59;101508.41;4983307;28;20052;-84
2021/08/11 08:55:57;;;;;;;27.27;20.67;;;;;;;17.28;98.25;101508.22;5013933;28;20137;-83
2021/08/11 08:58:22;;;;;;;26.95;19.45;;;;;;;17.37;96.66;101505.19;4981649;28;20459;-82
2021/08/11 09:00:48;;;;;;;25.80;19.95;;;;;;;17.65;98.26;101500.88;4987535;28;20125;-83
2021/08/11 09:03:15;;;;;;;24.42;19.08;;;;;;;17.84;96.68;101491.25;4983233;28;20479;-82
2021/08/11 09:05:40;;;;;;;23.42;19.85;;;;;;;18.01;95.43;101492.66;4986723;28;20399;-82
2021/08/11 09:08:07;;;;;;;23.63;18.05;;;;;;;18.00;92.66;101488.28;4984557;28;20042;-83
2021/08/11 09:10:33;;;;;;;22.40;17.60;;;;;;;18.10;93.16;101493.38;4979882;28;20065;-81
2021/08/11 09:12:59;;;;;;;23.17;17.15;;;;;;;18.28;93.29;101491.00;4985022;28;20080;-83
2021/08/11 09:15:36;;;;;;;18.95;15.95;;;;;;;18.53;90.60;101499.53;4982002;28;20089;-86
2021/08/11 09:18:19;;;;;;;20.95;15.23;;;;;;;18.57;90.18;101495.38;4983207;28;20043;-87
2021/08/11 09:20:49;;;;;;;20.30;15.73;;;;;;;18.72;89.56;101497.97;4996216;28;20734;-88
2021/08/11 09:23:31;;;;;;;15.55;12.80;;;;;;;18.84;88.32;101492.81;5012648;28;20505;-81
2021/08/11 09:26:01;;;;;;;14.13;12.07;;;;;;;18.96;87.51;101499.38;4996846;28;20042;-84
2021/08/11 09:28:32;;;;;;;14.68;11.05;;;;;;;18.97;86.05;101495.63;4980132;28;20117;-87
2021/08/11 09:30:58;;;;;;;13.25;10.25;;;;;;;18.99;85.03;101498.13;4986264;28;20514;-82
2021/08/11 09:33:24;;;;;;;16.40;12.13;;;;;;;19.09;84.87;101502.16;4981168;28;20038;-84
2021/08/11 09:35:51;;;;;;;15.38;12.20;;;;;;;19.15;85.07;101490.44;4983406;28;20464;-82
2021/08/11 09:38:17;;;;;;;16.15;12.30;;;;;;;19.15;84.53;101492.34;4986989;28;20124;-85
2021/08/11 09:40:43;;;;;;;11.23;8.10;;;;;;;19.27;83.69;101484.41;4981924;28;20046;-81
2021/08/11 09:43:17;;;;;;;9.55;7.28;;;;;;;19.47;82.55;101485.28;4993108;28;20030;-81
2021/08/11 09:45:48;;;;;;;12.52;9.55;;;;;;;19.74;83.05;101485.38;4993579;28;20042;-80
2021/08/11 09:48:19;;;;;;;13.50;8.98;;;;;;;19.76;80.21;101480.56;4990907;28;20038;-79
2021/08/11 09:50:49;;;;;;;11.77;8.80;;;;;;;19.76;81.25;101496.91;4980751;28;20054;-84
2021/08/11 09:53:23;;;;;;;13.18;9.23;;;;;;;19.99;81.32;101488.31;4985293;28;20039;-82
2021/08/11 09:56:02;;;;;;;11.00;8.35;;;;;;;20.02;78.25;101491.47;4987596;28;20046;-88
2021/08/11 09:58:28;;;;;;;;;;;;;;;20.05;79.28;101491.06;4986288;28;20045;-81
2021/08/11 10:00:53;;;;;;;12.95;8.63;;;;;;;19.88;76.79;101497.97;5003599;28;20575;-83
2021/08/11 10:03:19;;;;;;;13.07;8.90;;;;;;;19.97;78.79;101496.72;4980961;28;21248;-86
2021/08/11 10:05:44;;;;;;;14.73;9.57;;;;;;;20.21;79.89;101500.69;4981183;28;20042;-85
2021/08/11 10:08:10;;;;;;;11.75;8.35;;;;;;;20.28;78.80;101497.94;4997327;28;20081;-81
2021/08/11 10:10:55;;;;;;;12.43;9.25;;;;;;;20.41;77.51;101497.94;4986530;28;20026;-86
2021/08/11 10:13:22;;;;;;;11.73;8.82;;;;;;;20.45;77.21;101503.78;5012611;28;20034;-82
2021/08/11 10:15:48;;;;;;;16.85;12.10;;;;;;;20.32;77.17;101507.38;4987895;28;20066;-82
2021/08/11 10:18:20;;;;;;;16.27;13.38;;;;;;;20.30;78.54;101512.19;4984617;28;20073;-85
2021/08/11 10:20:46;;;;;;;15.60;11.95;;;;;;;20.37;78.84;101502.13;4980609;28;20128;-82
2021/08/11 10:23:16;;;;;;;14.70;11.20;;;;;;;20.55;76.52;101506.13;4984677;28;20054;-87
2021/08/11 10:25:41;;;;;;;14.45;11.00;;;;;;;20.57;77.20;101506.72;4985975;28;20074;-89
2021/08/11 10:28:07;;;;;;;15.93;12.13;;;;;;;20.56;76.44;101508.63;4965976;28;20744;-86
2021/08/11 10:30:33;;;;;;;17.30;13.35;;;;;;;20.60;77.14;101501.72;4986256;28;20049;-82
2021/08/11 10:33:00;;;;;;;16.02;11.35;;;;;;;20.60;76.24;101515.34;4981480;28;20038;-83
2021/08/11 10:35:25;;;;;;;13.80;10.55;;;;;;;20.57;77.52;101507.59;4985890;28;20495;-84
2021/08/11 10:37:51;;;;;;;14.93;11.93;;;;;;;20.80;78.22;101506.25;4982436;28;20050;-80
2021/08/11 10:40:17;;;;;;;17.83;14.35;;;;;;;20.96;75.71;101498.44;4982586;28;20463;-80
2021/08/11 10:42:53;;;;;;;14.48;11.52;;;;;;;20.77;74.05;101504.78;4983241;28;20045;-83
2021/08/11 10:45:21;;;;;;;15.32;12.10;;;;;;;20.93;76.62;101517.94;4985553;28;20049;-87
2021/08/11 10:47:46;;;;;;;13.75;11.43;;;;;;;21.02;76.54;101509.53;4985104;28;20058;-82
2021/08/11 10:50:13;;;;;;;15.25;12.88;;;;;;;21.10;74.20;101512.03;4997973;28;20470;-82
2021/08/11 10:52:38;;;;;;;17.10;12.77;;;;;;;21.18;74.84;101515.34;4981807;28;20096;-83
2021/08/11 10:55:05;;;;;;;16.45;12.75;;;;;;;21.16;75.65;101527.53;4985178;28;20042;-84
2021/08/11 10:57:34;;;;;;;14.13;12.48;;;;;;;21.03;75.83;101522.13;4985521;28;20070;-85
2021/08/11 11:00:23;;;;;;;13.13;10.63;;;;;;;21.05;75.73;101515.38;4985055;28;20495;-87
2021/08/11 11:02:51;;;;;;;12.93;10.50;;;;;;;21.05;73.74;101515.38;4980700;28;20050;-84
2021/08/11 11:05:20;;;;;;;15.82;12.73;;;;;;;21.03;74.86;101520.25;4980694;28;20053;-86